Time;durP1;ratioP1;P1;durP2;ratioP2;P2;SDS_P1;SDS_P2;PMS_P1;PMS_P2;Temp;Humidity;BMP_temperature;BMP_pressure;BME280_temperature;BME280_humidity;BME280_pressure;Samples;Min_cycle;Max_cycle;Signal;HPM_P1;HPM_P2
2023/05/26 00:00:43;;;;;;;13.50;10.82;;;14.30;99.90;;;;;;5032333;28;20079;-77
2023/05/26 00:03:10;;;;;;;15.35;11.30;;;14.30;99.90;;;;;;5020096;28;20056;-76
2023/05/26 00:05:40;;;;;;;14.68;10.65;;;14.30;99.90;;;;;;5037247;28;20055;-76
2023/05/26 00:08:09;;;;;;;13.50;10.07;;;14.20;99.90;;;;;;5048655;28;20079;-76
2023/05/26 00:10:37;;;;;;;11.52;10.25;;;14.20;99.90;;;;;;5028059;28;20119;-76
2023/05/26 00:13:05;;;;;;;13.75;11.85;;;14.10;99.90;;;;;;4997815;28;20146;-77
2023/05/26 00:15:32;;;;;;;12.88;9.55;;;14.10;99.90;;;;;;5048792;28;20045;-76
2023/05/26 00:18:01;;;;;;;11.65;9.30;;;14.00;99.90;;;;;;5048480;28;20056;-77
2023/05/26 00:20:30;;;;;;;11.65;9.27;;;13.90;99.90;;;;;;5048085;28;20045;-80
2023/05/26 00:22:57;;;;;;;11.18;9.70;;;13.90;99.90;;;;;;5015009;28;20045;-79
2023/05/26 00:25:26;;;;;;;10.93;9.77;;;13.90;99.90;;;;;;5049194;28;20114;-81
2023/05/26 00:27:54;;;;;;;12.23;9.88;;;13.80;99.90;;;;;;5030838;28;20051;-80
2023/05/26 00:30:21;;;;;;;10.18;9.13;;;13.70;99.90;;;;;;5049072;28;20041;-80
2023/05/26 00:32:49;;;;;;;10.82;9.38;;;13.70;99.90;;;;;;5049233;28;20053;-80
2023/05/26 00:35:16;;;;;;;10.68;9.57;;;13.70;99.90;;;;;;5049344;28;20045;-81
2023/05/26 00:37:44;;;;;;;13.73;9.70;;;13.70;99.90;;;;;;5033087;28;20563;-81
2023/05/26 00:40:12;;;;;;;13.15;9.70;;;13.70;99.90;;;;;;5042430;28;20041;-81
2023/05/26 00:42:41;;;;;;;10.68;9.18;;;13.60;99.90;;;;;;5028133;28;20107;-82
2023/05/26 00:45:10;;;;;;;12.23;10.85;;;13.60;99.90;;;;;;5048877;28;20151;-82
2023/05/26 00:47:38;;;;;;;10.00;8.95;;;13.60;99.90;;;;;;5052416;28;20049;-81
2023/05/26 00:50:07;;;;;;;12.77;9.02;;;13.60;99.90;;;;;;5047647;28;20134;-80
2023/05/26 00:52:35;;;;;;;13.05;9.07;;;13.50;99.90;;;;;;5034774;28;20059;-76
2023/05/26 00:55:04;;;;;;;13.32;9.43;;;13.50;99.90;;;;;;5035547;28;20053;-76
2023/05/26 00:57:33;;;;;;;14.13;9.95;;;13.50;99.90;;;;;;5029054;28;20064;-76
2023/05/26 01:00:02;;;;;;;12.15;9.43;;;13.50;99.90;;;;;;5035144;28;20045;-77
2023/05/26 01:02:32;;;;;;;13.93;9.03;;;13.50;99.90;;;;;;5051982;28;20044;-76
2023/05/26 01:05:00;;;;;;;11.77;9.20;;;13.40;99.90;;;;;;5043929;28;20402;-76
2023/05/26 01:07:27;;;;;;;10.35;9.05;;;13.40;99.90;;;;;;5052013;28;20048;-77
2023/05/26 01:09:55;;;;;;;10.40;9.40;;;13.40;99.90;;;;;;5047820;28;20525;-75
2023/05/26 01:12:29;;;;;;;13.10;10.15;;;13.40;99.90;;;;;;5067554;28;20055;-75
2023/05/26 01:15:02;;;;;;;11.15;9.55;;;13.30;99.90;;;;;;5035548;28;20406;-76
2023/05/26 01:17:38;;;;;;;9.98;8.98;;;13.30;99.90;;;;;;5052161;28;20041;-75
2023/05/26 01:20:17;;;;;;;11.40;9.52;;;13.30;99.90;;;;;;5053487;28;20053;-76
2023/05/26 01:23:21;;;;;;;11.23;9.30;;;13.30;99.90;;;;;;5044781;28;20453;-75
2023/05/26 01:26:49;;;;;;;13.43;9.57;;;13.40;99.90;;;;;;5015623;28;20692;-76
2023/05/26 01:29:22;;;;;;;10.40;8.88;;;13.40;99.90;;;;;;4956581;28;20094;-76
2023/05/26 01:31:50;;;;;;;11.13;9.02;;;13.30;99.90;;;;;;5036228;28;20111;-76
2023/05/26 01:34:17;;;;;;;10.80;8.25;;;13.30;99.90;;;;;;5025807;28;20140;-75
2023/05/26 01:36:45;;;;;;;10.20;9.00;;;13.30;99.90;;;;;;5032814;28;20046;-76
2023/05/26 01:39:12;;;;;;;11.50;8.63;;;13.30;99.90;;;;;;5014878;28;20046;-76
2023/05/26 01:41:47;;;;;;;15.45;9.10;;;13.20;99.90;;;;;;5035963;28;20571;-76
2023/05/26 01:44:24;;;;;;;10.02;8.68;;;13.30;99.90;;;;;;5032870;28;20049;-76
2023/05/26 01:46:54;;;;;;;12.25;8.55;;;13.30;99.90;;;;;;5037894;28;20136;-76
2023/05/26 01:49:22;;;;;;;10.05;9.05;;;13.30;99.90;;;;;;5041605;28;20420;-75
2023/05/26 01:51:55;;;;;;;12.23;8.90;;;13.30;99.90;;;;;;5034432;28;20460;-77
2023/05/26 01:54:24;;;;;;;12.98;9.25;;;13.30;99.90;;;;;;5034264;28;20063;-75
2023/05/26 01:56:54;;;;;;;9.55;8.55;;;13.30;99.90;;;;;;5042863;28;20139;-76
2023/05/26 01:59:25;;;;;;;11.07;8.98;;;13.30;99.90;;;;;;5021859;28;20056;-76
2023/05/26 02:01:52;;;;;;;9.35;8.35;;;13.30;99.90;;;;;;5048617;28;20056;-76
2023/05/26 02:04:20;;;;;;;10.43;8.55;;;13.30;99.90;;;;;;5048462;28;20144;-76
2023/05/26 02:06:47;;;;;;;10.18;8.82;;;13.30;99.90;;;;;;5048397;28;20044;-76
2023/05/26 02:09:16;;;;;;;9.60;8.18;;;13.30;99.90;;;;;;5020471;28;20045;-76
2023/05/26 02:11:43;;;;;;;9.07;7.90;;;13.30;99.90;;;;;;5016734;28;20045;-76
2023/05/26 02:14:11;;;;;;;11.60;9.05;;;13.30;99.90;;;;;;5051059;28;20081;-75
2023/05/26 02:16:40;;;;;;;11.75;9.15;;;13.30;99.90;;;;;;5050398;28;20065;-76
2023/05/26 02:19:08;;;;;;;9.68;7.88;;;13.30;99.90;;;;;;5032991;28;20090;-76
2023/05/26 02:21:36;;;;;;;12.50;9.07;;;13.30;99.90;;;;;;5035973;28;20560;-77
2023/05/26 02:24:04;;;;;;;15.90;8.55;;;13.30;99.90;;;;;;5050850;28;20458;-76
2023/05/26 02:26:32;;;;;;;10.55;8.10;;;13.30;99.90;;;;;;5022008;28;20052;-76
2023/05/26 02:28:59;;;;;;;14.27;8.05;;;13.30;99.90;;;;;;5050501;28;20047;-76
2023/05/26 02:31:27;;;;;;;8.93;7.78;;;13.30;99.90;;;;;;5051095;28;20048;-76
2023/05/26 02:33:56;;;;;;;9.43;7.53;;;13.40;99.90;;;;;;5015796;28;20508;-76
2023/05/26 02:36:25;;;;;;;9.90;8.85;;;13.40;99.90;;;;;;5053154;28;20052;-76
2023/05/26 02:38:53;;;;;;;13.20;7.30;;;13.40;99.90;;;;;;5050656;28;20056;-75
2023/05/26 02:41:23;;;;;;;9.25;7.88;;;13.40;99.90;;;;;;5048435;28;20056;-75
2023/05/26 02:43:50;;;;;;;12.05;7.38;;;13.50;99.90;;;;;;5055938;28;20044;-76
2023/05/26 02:46:24;;;;;;;7.28;6.57;;;13.50;99.90;;;;;;5043792;28;20041;-75
2023/05/26 02:48:52;;;;;;;7.60;6.80;;;13.50;99.90;;;;;;5032476;28;20547;-77
2023/05/26 02:51:21;;;;;;;7.47;6.20;;;13.60;99.90;;;;;;5023166;28;20102;-75
2023/05/26 02:53:48;;;;;;;6.22;5.57;;;13.60;99.90;;;;;;5037385;28;20052;-74
2023/05/26 02:56:15;;;;;;;8.13;6.05;;;13.70;99.90;;;;;;5033756;28;20079;-75
2023/05/26 02:58:43;;;;;;;6.43;5.60;;;13.80;99.90;;;;;;5029038;28;20046;-79
2023/05/26 03:01:11;;;;;;;6.55;5.32;;;13.80;99.90;;;;;;5056987;28;20518;-79
2023/05/26 03:03:39;;;;;;;8.88;6.07;;;13.90;99.90;;;;;;5051407;28;20140;-79
2023/05/26 03:06:07;;;;;;;6.25;5.32;;;13.80;99.90;;;;;;5065084;28;20076;-79
2023/05/26 03:08:37;;;;;;;7.82;5.80;;;13.80;99.90;;;;;;5037928;28;20202;-80
2023/05/26 03:11:05;;;;;;;6.30;4.60;;;13.80;99.90;;;;;;5032353;28;20468;-79
2023/05/26 03:13:33;;;;;;;6.75;5.18;;;13.80;99.90;;;;;;5062493;28;20041;-80
2023/05/26 03:16:00;;;;;;;7.45;4.95;;;13.70;99.90;;;;;;5042163;28;20139;-80
2023/05/26 03:18:28;;;;;;;10.30;5.15;;;13.70;99.90;;;;;;5015546;28;20056;-79
2023/05/26 03:20:55;;;;;;;17.35;5.82;;;13.70;99.90;;;;;;5035568;28;20074;-80
2023/05/26 03:23:23;;;;;;;7.68;5.72;;;13.70;99.90;;;;;;5044171;28;20126;-80
2023/05/26 03:25:52;;;;;;;7.43;5.53;;;13.70;99.90;;;;;;5015588;28;20118;-80
2023/05/26 03:28:19;;;;;;;10.77;5.88;;;13.70;99.90;;;;;;5048316;28;20045;-80
2023/05/26 03:30:47;;;;;;;5.97;5.15;;;13.70;99.90;;;;;;5054741;28;20053;-81
2023/05/26 03:33:15;;;;;;;8.13;5.30;;;13.70;99.90;;;;;;5055508;28;20045;-80
2023/05/26 03:35:43;;;;;;;8.55;6.55;;;13.70;99.90;;;;;;5043067;28;20053;-81
2023/05/26 03:38:10;;;;;;;6.47;5.50;;;13.70;99.90;;;;;;5031866;28;20420;-79
2023/05/26 03:40:41;;;;;;;6.85;5.70;;;13.80;99.90;;;;;;5028692;28;20501;-80
2023/05/26 03:43:10;;;;;;;5.90;5.30;;;13.80;99.90;;;;;;5019483;28;20045;-81
2023/05/26 03:45:45;;;;;;;8.52;5.47;;;13.90;99.90;;;;;;5031509;28;20099;-80
2023/05/26 03:48:15;;;;;;;7.82;5.07;;;14.10;99.90;;;;;;5025799;28;20049;-80
2023/05/26 03:50:46;;;;;;;7.88;5.07;;;14.20;99.90;;;;;;5024442;28;20068;-79
2023/05/26 03:53:14;;;;;;;16.50;4.47;;;14.30;99.90;;;;;;5032449;28;20063;-78
2023/05/26 03:55:43;;;;;;;6.68;4.75;;;14.40;99.90;;;;;;5046259;28;20044;-79
2023/05/26 03:58:12;;;;;;;6.90;5.10;;;14.50;99.90;;;;;;5018815;28;20052;-79
2023/05/26 04:00:40;;;;;;;6.25;5.18;;;14.50;99.90;;;;;;5049340;28;20544;-77
2023/05/26 04:03:08;;;;;;;7.72;5.15;;;14.60;99.90;;;;;;5043849;28;20076;-76
2023/05/26 04:05:36;;;;;;;5.72;5.15;;;14.60;99.90;;;;;;5046590;28;20523;-76
2023/05/26 04:08:04;;;;;;;9.40;5.38;;;14.60;99.90;;;;;;5018171;28;20045;-76
2023/05/26 04:10:31;;;;;;;7.50;4.70;;;14.70;99.90;;;;;;5061714;28;20053;-75
2023/05/26 04:12:59;;;;;;;9.43;5.82;;;14.80;99.90;;;;;;5035904;28;20053;-76
2023/05/26 04:15:28;;;;;;;6.45;4.47;;;14.80;99.90;;;;;;5035517;28;20566;-76
2023/05/26 04:17:57;;;;;;;5.93;4.32;;;14.90;99.90;;;;;;5005708;28;20041;-77
2023/05/26 04:20:25;;;;;;;6.90;4.72;;;15.00;99.90;;;;;;5036066;28;20048;-77
2023/05/26 04:22:53;;;;;;;8.93;5.35;;;15.20;99.90;;;;;;5052014;28;20095;-76
2023/05/26 04:25:21;;;;;;;11.52;5.60;;;15.40;99.90;;;;;;5056679;28;20138;-76
2023/05/26 04:28:02;;;;;;;9.32;4.70;;;15.60;99.90;;;;;;5032425;28;20048;-76
2023/05/26 04:31:04;;;;;;;9.80;5.47;;;15.80;99.90;;;;;;5022166;28;20046;-76
2023/05/26 04:33:39;;;;;;;13.18;6.57;;;15.90;99.90;;;;;;5032213;28;20041;-76
2023/05/26 04:36:09;;;;;;;8.18;4.75;;;15.90;99.90;;;;;;5054773;28;20158;-77
2023/05/26 04:38:37;;;;;;;6.07;3.67;;;15.90;99.90;;;;;;5047469;28;20508;-76
2023/05/26 04:41:06;;;;;;;8.65;4.20;;;15.90;99.90;;;;;;5047046;28;20056;-77
2023/05/26 04:43:35;;;;;;;7.35;3.47;;;15.80;99.90;;;;;;5050468;28;20531;-76
2023/05/26 04:46:05;;;;;;;7.13;4.03;;;15.60;99.90;;;;;;5051840;28;20041;-75
2023/05/26 04:48:36;;;;;;;7.40;4.03;;;15.40;99.90;;;;;;5044373;28;20041;-76
2023/05/26 04:51:07;;;;;;;5.00;3.55;;;15.30;99.90;;;;;;5048724;28;20508;-77
2023/05/26 04:53:35;;;;;;;7.63;4.30;;;15.20;99.90;;;;;;5048955;28;20091;-81
2023/05/26 04:56:05;;;;;;;4.75;4.07;;;15.10;99.90;;;;;;5046066;28;20037;-81
2023/05/26 04:58:37;;;;;;;4.95;3.78;;;15.10;99.90;;;;;;5014126;28;20149;-81
2023/05/26 05:01:06;;;;;;;8.07;4.13;;;15.10;99.90;;;;;;5030043;28;20055;-81
2023/05/26 05:03:42;;;;;;;7.15;4.20;;;15.20;99.90;;;;;;5015299;28;20041;-79
2023/05/26 05:06:16;;;;;;;5.30;4.20;;;15.30;99.90;;;;;;5042525;28;20132;-79
2023/05/26 05:08:47;;;;;;;12.77;4.10;;;15.40;99.90;;;;;;5056157;28;20057;-81
2023/05/26 05:11:15;;;;;;;11.00;5.03;;;15.50;99.90;;;;;;5034238;28;20094;-80
2023/05/26 05:13:42;;;;;;;14.48;3.97;;;15.60;99.90;;;;;;5050630;28;20075;-79
2023/05/26 05:16:11;;;;;;;14.68;4.30;;;15.70;99.90;;;;;;5016489;28;20076;-81
2023/05/26 05:18:40;;;;;;;7.25;6.53;;;15.80;99.90;;;;;;5026868;28;20059;-79
2023/05/26 05:21:07;;;;;;;6.18;4.53;;;15.90;99.90;;;;;;5045283;28;20095;-80
2023/05/26 05:23:35;;;;;;;7.10;4.05;;;16.10;99.90;;;;;;5032676;28;20047;-80
2023/05/26 05:26:04;;;;;;;4.43;4.03;;;16.20;99.90;;;;;;5049093;28;20041;-82
2023/05/26 05:28:32;;;;;;;5.28;4.53;;;16.30;99.90;;;;;;5035968;28;20056;-81
2023/05/26 05:31:11;;;;;;;6.43;4.75;;;16.50;99.90;;;;;;5018945;28;20053;-81
2023/05/26 05:33:39;;;;;;;8.38;4.30;;;16.80;99.90;;;;;;5038415;28;20040;-82
2023/05/26 05:36:08;;;;;;;4.63;4.18;;;17.30;99.90;;;;;;5036005;28;20519;-80
2023/05/26 05:38:35;;;;;;;7.10;4.22;;;17.40;99.90;;;;;;5041788;28;20053;-82
2023/05/26 05:41:03;;;;;;;10.95;4.63;;;17.50;99.90;;;;;;5023567;28;20045;-82
2023/05/26 05:43:32;;;;;;;8.20;4.63;;;17.60;99.90;;;;;;5043761;28;20072;-82
2023/05/26 05:46:00;;;;;;;4.45;3.65;;;18.10;99.90;;;;;;5048661;28;20103;-82
2023/05/26 05:48:41;;;;;;;9.05;3.40;;;18.50;99.90;;;;;;5026147;28;20136;-81
2023/05/26 05:51:14;;;;;;;7.50;3.13;;;18.80;99.90;;;;;;5033320;28;20061;-82
2023/05/26 05:53:41;;;;;;;12.00;3.45;;;18.90;99.90;;;;;;5045262;28;20063;-79
2023/05/26 05:56:09;;;;;;;7.50;2.85;;;19.30;99.90;;;;;;5025573;28;20041;-79
2023/05/26 05:58:37;;;;;;;5.55;3.08;;;19.80;98.90;;;;;;5015515;28;20041;-79
2023/05/26 06:01:04;;;;;;;5.32;3.50;;;20.20;97.30;;;;;;5037307;28;20073;-77
2023/05/26 06:03:45;;;;;;;8.85;3.33;;;20.60;95.40;;;;;;5015564;28;20073;-80
2023/05/26 06:06:20;;;;;;;6.90;3.57;;;21.00;93.40;;;;;;5019823;28;20069;-79
2023/05/26 06:08:47;;;;;;;7.22;3.20;;;21.40;91.00;;;;;;5016819;28;20434;-79
2023/05/26 06:11:15;;;;;;;8.07;3.58;;;21.70;90.10;;;;;;5033688;28;20040;-79
2023/05/26 06:13:46;;;;;;;7.03;3.80;;;21.90;86.60;;;;;;5033595;28;20147;-79
2023/05/26 06:16:14;;;;;;;7.68;3.83;;;22.10;88.00;;;;;;5017373;28;20143;-78
2023/05/26 06:18:43;;;;;;;5.38;3.40;;;22.30;83.80;;;;;;5049029;28;20333;-78
2023/05/26 06:21:11;;;;;;;6.93;3.33;;;22.50;80.60;;;;;;5052022;28;20049;-77
2023/05/26 06:23:40;;;;;;;9.38;3.92;;;22.60;79.00;;;;;;5032957;28;20079;-77
2023/05/26 06:26:07;;;;;;;6.75;3.70;;;22.80;77.30;;;;;;5025146;28;20046;-77
2023/05/26 06:28:36;;;;;;;6.45;2.90;;;23.00;76.50;;;;;;5033157;28;20041;-76
2023/05/26 06:31:05;;;;;;;5.15;2.42;;;23.30;71.70;;;;;;5034439;28;20064;-78
2023/05/26 06:33:46;;;;;;;8.45;2.40;;;23.40;68.90;;;;;;5029039;28;20057;-76
2023/05/26 06:36:16;;;;;;;6.35;2.60;;;23.50;66.20;;;;;;5033704;28;20110;-77
2023/05/26 06:38:45;;;;;;;6.15;2.30;;;23.70;65.90;;;;;;5042933;28;20045;-78
2023/05/26 06:41:16;;;;;;;4.07;3.10;;;23.90;66.00;;;;;;5011666;28;20047;-78
2023/05/26 06:43:44;;;;;;;6.15;2.33;;;24.20;65.40;;;;;;5027245;28;20048;-77
2023/05/26 06:46:14;;;;;;;19.80;3.85;;;24.40;64.90;;;;;;5030649;28;20076;-78
2023/05/26 06:48:42;;;;;;;3.42;3.03;;;24.60;63.80;;;;;;5043256;28;20142;-78
2023/05/26 06:51:23;;;;;;;8.95;3.03;;;24.80;63.30;;;;;;5031739;28;20044;-79
2023/05/26 06:53:51;;;;;;;9.65;3.40;;;24.90;61.90;;;;;;5052840;28;20458;-78
2023/05/26 06:56:19;;;;;;;12.07;3.67;;;25.10;62.80;;;;;;5029081;28;20037;-78
2023/05/26 06:58:47;;;;;;;10.73;3.75;;;25.30;62.10;;;;;;5024199;28;20041;-80
2023/05/26 07:01:17;;;;;;;6.28;3.60;;;25.50;61.70;;;;;;5027596;28;20127;-79
2023/05/26 07:03:45;;;;;;;6.50;3.33;;;25.90;62.10;;;;;;5033065;28;20540;-79
2023/05/26 07:06:13;;;;;;;9.02;3.80;;;26.10;61.20;;;;;;5016012;28;20057;-78
2023/05/26 07:08:43;;;;;;;6.75;3.50;;;26.20;58.70;;;;;;5051026;28;20044;-78
2023/05/26 07:11:22;;;;;;;7.68;3.90;;;26.10;58.90;;;;;;5021885;28;20509;-77
2023/05/26 07:13:55;;;;;;;10.75;3.20;;;25.60;59.10;;;;;;5028002;28;20057;-78
2023/05/26 07:16:23;;;;;;;8.00;3.65;;;25.60;62.40;;;;;;5026570;28;20055;-77
2023/05/26 07:18:55;;;;;;;11.88;3.63;;;25.40;61.60;;;;;;5022164;28;20057;-81
2023/05/26 07:21:27;;;;;;;10.35;3.47;;;25.10;61.10;;;;;;5012721;28;20049;-79
2023/05/26 07:23:57;;;;;;;8.98;4.53;;;25.00;60.50;;;;;;5009360;28;20500;-80
2023/05/26 07:26:26;;;;;;;13.32;5.60;;;24.70;59.70;;;;;;5029999;28;20053;-80
2023/05/26 07:28:54;;;;;;;9.07;3.05;;;23.90;60.30;;;;;;5028769;28;20448;-77
2023/05/26 07:31:22;;;;;;;12.30;3.30;;;23.10;62.20;;;;;;5042814;28;20049;-77
2023/05/26 07:33:54;;;;;;;8.38;2.97;;;23.20;64.90;;;;;;5012047;28;20068;-80
2023/05/26 07:36:21;;;;;;;14.40;3.38;;;23.70;64.50;;;;;;5046442;28;20050;-79
2023/05/26 07:38:49;;;;;;;19.33;4.43;;;24.50;63.30;;;;;;5031221;28;20063;-80
2023/05/26 07:41:18;;;;;;;9.45;3.45;;;25.40;61.60;;;;;;5015581;28;20045;-80
2023/05/26 07:43:46;;;;;;;8.60;2.70;;;25.90;59.90;;;;;;5017295;28;20595;-81
2023/05/26 07:46:16;;;;;;;7.47;2.85;;;26.40;57.80;;;;;;5006407;28;20085;-80
2023/05/26 07:48:47;;;;;;;8.02;2.97;;;26.60;55.40;;;;;;5047922;28;20064;-77
2023/05/26 07:51:15;;;;;;;26.65;3.67;;;26.70;53.40;;;;;;5018651;28;20041;-79
2023/05/26 07:53:46;;;;;;;6.32;2.33;;;27.10;53.50;;;;;;5040301;28;20599;-80
2023/05/26 07:56:14;;;;;;;6.93;2.85;;;27.60;53.20;;;;;;5042429;28;20606;-81
2023/05/26 07:58:50;;;;;;;7.10;2.55;;;28.00;52.40;;;;;;5043299;28;20057;-80
2023/05/26 08:01:17;;;;;;;6.78;2.35;;;28.40;51.80;;;;;;5041098;28;20111;-82
2023/05/26 08:03:47;;;;;;;7.03;2.40;;;28.70;50.60;;;;;;5041345;28;20040;-79
2023/05/26 08:06:19;;;;;;;6.47;2.10;;;28.70;50.30;;;;;;5033064;28;20049;-79
2023/05/26 08:08:49;;;;;;;15.93;2.50;;;28.50;49.70;;;;;;5028682;28;20056;-80
2023/05/26 08:11:20;;;;;;;11.70;2.72;;;27.90;50.40;;;;;;5047294;28;20044;-78
2023/05/26 08:13:50;;;;;;;19.80;3.90;;;27.90;50.60;;;;;;5013451;28;20441;-80
2023/05/26 08:16:24;;;;;;;7.40;2.60;;;28.40;51.70;;;;;;5044915;28;20041;-79
2023/05/26 08:18:52;;;;;;;3.90;1.90;;;29.00;52.30;;;;;;5045710;28;20060;-78
2023/05/26 08:21:23;;;;;;;5.45;1.77;;;29.20;46.60;;;;;;5047045;28;20076;-78
2023/05/26 08:23:54;;;;;;;7.13;1.90;;;28.70;46.30;;;;;;5045165;28;20080;-78
2023/05/26 08:26:27;;;;;;;9.75;2.30;;;28.30;49.30;;;;;;5040768;28;20386;-78
2023/05/26 08:28:57;;;;;;;8.68;2.05;;;28.30;47.10;;;;;;5035606;28;20144;-78
2023/05/26 08:31:26;;;;;;;3.90;1.75;;;28.00;46.70;;;;;;5025015;28;20448;-78
2023/05/26 08:33:54;;;;;;;5.13;2.08;;;26.90;47.70;;;;;;5028739;28;20535;-78
2023/05/26 08:36:22;;;;;;;5.45;2.15;;;25.70;49.20;;;;;;5023863;28;20046;-78
2023/05/26 08:38:49;;;;;;;6.45;2.15;;;24.70;51.40;;;;;;5028031;28;20049;-81
2023/05/26 08:41:22;;;;;;;5.50;1.95;;;24.10;52.70;;;;;;5041125;28;20127;-78
2023/05/26 08:43:53;;;;;;;9.90;1.92;;;23.60;53.50;;;;;;5011100;28;20071;-82
2023/05/26 08:46:23;;;;;;;7.13;2.10;;;24.60;53.50;;;;;;5047492;28;20468;-79
2023/05/26 08:48:55;;;;;;;4.55;1.70;;;26.10;51.10;;;;;;5025867;28;20045;-78
2023/05/26 08:51:22;;;;;;;6.63;1.75;;;27.40;47.40;;;;;;5024689;28;20049;-77
2023/05/26 08:53:51;;;;;;;6.57;2.00;;;28.10;46.50;;;;;;5021577;28;20045;-76
2023/05/26 08:56:18;;;;;;;4.22;1.90;;;28.70;45.70;;;;;;5045353;28;20099;-78
2023/05/26 08:58:46;;;;;;;4.63;1.52;;;29.30;42.70;;;;;;5047864;28;20037;-78
2023/05/26 09:01:14;;;;;;;5.95;1.60;;;29.50;41.80;;;;;;5050900;28;20091;-78
2023/05/26 09:03:44;;;;;;;6.22;2.25;;;29.50;42.30;;;;;;5052239;28;20162;-84
2023/05/26 09:06:12;;;;;;;6.18;1.17;;;29.60;41.90;;;;;;5049134;28;20059;-76
2023/05/26 09:08:42;;;;;;;8.77;1.92;;;29.80;41.30;;;;;;5032906;28;20041;-82
2023/05/26 09:11:27;;;;;;;11.20;2.00;;;30.10;41.60;;;;;;5044908;28;20156;-79
2023/05/26 09:13:56;;;;;;;7.45;1.48;;;30.50;40.20;;;;;;5043057;28;20073;-80
2023/05/26 09:16:25;;;;;;;4.35;1.52;;;30.30;40.50;;;;;;5045394;28;20500;-81
2023/05/26 09:19:00;;;;;;;6.32;1.88;;;30.30;41.40;;;;;;5047089;28;20126;-80
2023/05/26 09:21:32;;;;;;;4.97;1.50;;;30.30;40.40;;;;;;5053003;28;20076;-78
2023/05/26 09:24:02;;;;;;;5.70;1.33;;;30.60;39.40;;;;;;5052765;28;20045;-79
2023/05/26 09:26:32;;;;;;;4.68;1.30;;;30.70;39.50;;;;;;5049274;28;20413;-79
2023/05/26 09:29:02;;;;;;;2.20;1.20;;;30.60;38.30;;;;;;5052341;28;20053;-77
2023/05/26 09:31:39;;;;;;;8.05;1.70;;;30.50;38.80;;;;;;5052789;28;20521;-79
2023/05/26 09:34:11;;;;;;;7.40;1.65;;;30.70;39.40;;;;;;5048424;28;20199;-78
2023/05/26 09:36:40;;;;;;;6.40;1.58;;;31.00;39.50;;;;;;5031963;28;20057;-79
2023/05/26 09:39:10;;;;;;;5.63;1.50;;;30.90;38.20;;;;;;5051381;28;20045;-76
2023/05/26 09:41:42;;;;;;;4.68;1.40;;;30.90;38.60;;;;;;5052099;28;20045;-75
2023/05/26 09:44:12;;;;;;;5.32;1.35;;;31.10;38.50;;;;;;5052685;28;20049;-75
2023/05/26 09:46:41;;;;;;;7.20;1.27;;;31.10;37.50;;;;;;5034084;28;20037;-77
2023/05/26 09:49:13;;;;;;;1.40;1.23;;;31.30;37.50;;;;;;5033766;28;20049;-76
2023/05/26 09:51:41;;;;;;;4.88;1.20;;;31.50;38.70;;;;;;5052304;28;20053;-77
2023/05/26 09:54:09;;;;;;;2.50;1.30;;;31.40;36.50;;;;;;5019454;28;20045;-80
2023/05/26 09:56:54;;;;;;;8.07;1.48;;;31.40;36.40;;;;;;5014616;28;20057;-77
2023/05/26 09:59:22;;;;;;;5.60;1.15;;;31.20;36.00;;;;;;5030401;28;20103;-79
2023/05/26 10:01:51;;;;;;;5.28;1.13;;;31.10;35.60;;;;;;5032075;28;20135;-78
2023/05/26 10:04:21;;;;;;;3.67;1.15;;;31.10;36.20;;;;;;5034608;28;20044;-77
2023/05/26 10:06:56;;;;;;;2.53;1.00;;;31.30;37.40;;;;;;5051688;28;20460;-79
2023/05/26 10:09:24;;;;;;;2.97;1.23;;;31.60;36.60;;;;;;5050801;28;20095;-77
2023/05/26 10:11:55;;;;;;;5.50;1.25;;;31.80;37.30;;;;;;5037310;28;20037;-77
2023/05/26 10:14:23;;;;;;;2.28;1.15;;;31.80;38.60;;;;;;5033265;28;20338;-78
2023/05/26 10:16:51;;;;;;;3.67;0.95;;;31.70;37.10;;;;;;5034227;28;20045;-77
2023/05/26 10:19:20;;;;;;;3.70;1.50;;;31.80;34.40;;;;;;5014991;28;20049;-76
2023/05/26 10:21:53;;;;;;;1.33;1.10;;;32.10;33.70;;;;;;5037209;28;20513;-79
2023/05/26 10:24:32;;;;;;;4.03;0.80;;;32.30;32.60;;;;;;5002581;28;20083;-79
2023/05/26 10:27:06;;;;;;;2.42;1.45;;;32.10;33.30;;;;;;5030171;28;20063;-78
2023/05/26 10:29:44;;;;;;;2.13;0.82;;;31.90;33.40;;;;;;5052385;28;20047;-80
2023/05/26 10:32:43;;;;;;;1.55;0.82;;;31.60;33.90;;;;;;5044574;28;20060;-81
2023/05/26 10:35:30;;;;;;;2.47;0.88;;;31.70;35.30;;;;;;5022574;28;20053;-77
2023/05/26 10:38:13;;;;;;;2.55;1.02;;;32.00;33.40;;;;;;5045627;28;20095;-79
2023/05/26 10:40:45;;;;;;;3.05;0.90;;;31.90;33.70;;;;;;5035801;28;20053;-76
2023/05/26 10:43:21;;;;;;;3.47;0.93;;;31.90;34.00;;;;;;5028851;28;20053;-78
2023/05/26 10:45:54;;;;;;;11.05;2.47;;;32.10;35.60;;;;;;5045289;28;20606;-77
2023/05/26 10:48:22;;;;;;;4.53;1.48;;;32.30;35.00;;;;;;5042966;28;20053;-79
2023/05/26 10:51:31;;;;;;;3.33;1.00;;;32.40;34.60;;;;;;5048727;28;20075;-78
2023/05/26 10:54:01;;;;;;;6.85;1.55;;;32.50;35.70;;;;;;5044400;28;20057;-83
2023/05/26 10:56:36;;;;;;;5.38;1.45;;;32.70;35.20;;;;;;5043552;28;20094;-78
2023/05/26 10:59:04;;;;;;;3.35;0.80;;;32.60;35.70;;;;;;5005617;28;20049;-81
2023/05/26 11:01:33;;;;;;;3.20;1.20;;;32.60;34.60;;;;;;5027844;28;20049;-84
2023/05/26 11:04:09;;;;;;;6.68;1.10;;;32.90;34.30;;;;;;5032631;28;20098;-82
2023/05/26 11:06:47;;;;;;;1.58;1.10;;;32.80;33.40;;;;;;5047999;28;20438;-83
2023/05/26 11:09:15;;;;;;;4.22;1.17;;;32.90;32.90;;;;;;5043770;28;20136;-81
2023/05/26 11:11:54;;;;;;;4.25;0.80;;;33.00;33.40;;;;;;5033296;28;20049;-80
2023/05/26 11:14:25;;;;;;;4.72;0.90;;;33.20;32.10;;;;;;5031917;28;20056;-81
2023/05/26 11:16:58;;;;;;;6.85;1.00;;;33.30;32.30;;;;;;5039990;28;20053;-82
2023/05/26 11:19:40;;;;;;;1.70;1.08;;;33.60;32.70;;;;;;5042377;28;20638;-80
2023/05/26 11:22:12;;;;;;;5.75;1.35;;;33.40;30.80;;;;;;5049575;28;20512;-78
2023/05/26 11:24:42;;;;;;;4.53;1.73;;;33.20;30.70;;;;;;5044126;28;20145;-79
2023/05/26 11:27:09;;;;;;;5.68;0.90;;;33.00;30.90;;;;;;5014498;28;20535;-79
2023/05/26 11:29:37;;;;;;;4.93;1.10;;;33.10;31.00;;;;;;5030056;28;20049;-78
2023/05/26 11:32:08;;;;;;;5.95;1.02;;;33.30;31.20;;;;;;5035992;28;20063;-79
2023/05/26 11:34:38;;;;;;;1.92;0.90;;;33.20;31.60;;;;;;5047979;28;20053;-82
2023/05/26 11:37:10;;;;;;;1.55;1.00;;;33.30;29.30;;;;;;5032411;28;20080;-80
2023/05/26 11:39:39;;;;;;;2.25;0.90;;;32.90;29.50;;;;;;5050870;28;20053;-78
2023/05/26 11:42:08;;;;;;;2.13;1.48;;;32.60;29.20;;;;;;5032814;28;20056;-82
2023/05/26 11:44:36;;;;;;;5.65;0.98;;;32.60;30.00;;;;;;5040749;28;20551;-80
2023/05/26 11:47:11;;;;;;;3.63;1.02;;;32.60;30.20;;;;;;5019668;28;20140;-80
2023/05/26 11:49:47;;;;;;;8.20;1.15;;;32.30;30.00;;;;;;5043858;28;20080;-80
2023/05/26 11:52:17;;;;;;;5.75;0.93;;;31.90;31.50;;;;;;5044873;28;20095;-83
2023/05/26 11:54:45;;;;;;;2.38;1.15;;;32.10;31.70;;;;;;5041822;28;20569;-82
2023/05/26 11:57:31;;;;;;;3.67;0.70;;;32.50;31.80;;;;;;5027363;28;20041;-81
2023/05/26 11:59:58;;;;;;;2.70;0.65;;;32.80;29.70;;;;;;5045742;28;20110;-83
2023/05/26 12:02:26;;;;;;;4.90;1.13;;;32.90;29.70;;;;;;5047561;28;20056;-78
2023/05/26 12:04:55;;;;;;;2.58;0.80;;;33.30;29.20;;;;;;5033138;28;20057;-85
2023/05/26 12:07:30;;;;;;;4.85;0.93;;;33.70;29.70;;;;;;5016410;28;20600;-79
2023/05/26 12:10:11;;;;;;;4.20;1.05;;;33.60;32.00;;;;;;5026243;28;20060;-79
2023/05/26 12:12:49;;;;;;;4.28;1.02;;;33.30;32.40;;;;;;5044333;28;20076;-85
2023/05/26 12:15:20;;;;;;;9.52;1.10;;;32.80;32.60;;;;;;5026277;28;20565;-85
2023/05/26 12:17:49;;;;;;;4.55;1.13;;;32.20;32.60;;;;;;5045994;28;20152;-83
2023/05/26 12:20:18;;;;;;;3.08;0.90;;;32.20;32.50;;;;;;5048113;28;20051;-85
2023/05/26 12:22:51;;;;;;;7.38;1.20;;;32.30;32.80;;;;;;5035836;28;20053;-81
2023/05/26 12:25:25;;;;;;;4.07;1.30;;;32.50;33.30;;;;;;5049609;28;20057;-83
2023/05/26 12:27:53;;;;;;;4.72;1.20;;;32.90;32.60;;;;;;5038695;28;20045;-85
2023/05/26 12:30:22;;;;;;;3.13;1.27;;;33.30;32.90;;;;;;5030789;28;20060;-85
2023/05/26 12:32:50;;;;;;;2.80;1.42;;;33.50;31.60;;;;;;5047873;28;20084;-86
2023/05/26 12:35:19;;;;;;;8.27;0.90;;;33.70;30.50;;;;;;5049811;28;20440;-80
2023/05/26 12:37:49;;;;;;;1.95;1.25;;;33.50;30.60;;;;;;5051369;28;20053;-83
2023/05/26 12:40:16;;;;;;;3.90;1.50;;;33.00;30.50;;;;;;5044174;28;20079;-81
2023/05/26 12:42:44;;;;;;;2.40;0.80;;;32.20;32.30;;;;;;5053413;28;20037;-82
2023/05/26 12:45:13;;;;;;;7.95;1.90;;;31.40;32.40;;;;;;5061414;28;20060;-85
2023/05/26 12:47:40;;;;;;;73.47;65.43;;;31.00;33.40;;;;;;5021428;28;20429;-86
2023/05/26 12:50:09;;;;;;;19.50;17.42;;;31.10;33.20;;;;;;5046942;28;20056;-81
2023/05/26 12:52:37;;;;;;;9.98;3.58;;;31.20;34.10;;;;;;5044663;28;20072;-87
2023/05/26 12:55:06;;;;;;;4.65;2.15;;;31.30;34.00;;;;;;5038541;28;20041;-84
2023/05/26 12:57:34;;;;;;;2.58;1.00;;;31.00;33.80;;;;;;5029234;28;20053;-83
2023/05/26 13:00:02;;;;;;;6.22;1.55;;;30.60;33.00;;;;;;5045247;28;20130;-81